Time;durP1;ratioP1;P1;durP2;ratioP2;P2;SDS_P1;SDS_P2;PMS_P1;PMS_P2;Temp;Humidity;BMP_temperature;BMP_pressure;BME280_temperature;BME280_humidity;BME280_pressure;Samples;Min_cycle;Max_cycle;Signal;HPM_P1;HPM_P2
2023/03/07 00:01:56;;;;;;;20.25;14.40;;;;;;;;;;10417856;27;20067;-62
2023/03/07 00:06:55;;;;;;;13.43;9.60;;;;;;;;;;10418169;27;20079;-62
2023/03/07 00:11:55;;;;;;;12.35;8.85;;;;;;;;;;10415737;27;20524;-62
2023/03/07 00:16:53;;;;;;;11.63;8.82;;;;;;;;;;10416298;27;20044;-62
2023/03/07 00:21:51;;;;;;;14.32;8.63;;;;;;;;;;10416370;27;20083;-62
2023/03/07 00:26:49;;;;;;;10.00;7.68;;;;;;;;;;10415927;27;20073;-62
2023/03/07 00:31:50;;;;;;;12.77;8.05;;;;;;;;;;10416604;27;20458;-62
2023/03/07 00:36:48;;;;;;;15.43;8.00;;;;;;;;;;10415734;27;20074;-62
2023/03/07 00:41:46;;;;;;;9.07;7.25;;;;;;;;;;10414540;27;20074;-62
2023/03/07 00:46:44;;;;;;;13.48;7.50;;;;;;;;;;10416469;27;20078;-62
2023/03/07 00:51:44;;;;;;;10.55;8.35;;;;;;;;;;10415030;27;20039;-62
2023/03/07 00:56:42;;;;;;;11.07;8.55;;;;;;;;;;10414579;27;20047;-62
2023/03/07 01:01:40;;;;;;;14.43;7.78;;;;;;;;;;10413886;27;20076;-62
2023/03/07 01:06:39;;;;;;;12.18;8.38;;;;;;;;;;10412587;27;20071;-62
2023/03/07 01:11:40;;;;;;;11.52;8.23;;;;;;;;;;10420599;27;20074;-61
2023/03/07 01:16:38;;;;;;;12.63;8.45;;;;;;;;;;10420472;27;20050;-62
2023/03/07 01:21:37;;;;;;;12.50;8.43;;;;;;;;;;10414882;27;20506;-62
2023/03/07 01:26:36;;;;;;;12.02;7.25;;;;;;;;;;10413912;27;20440;-62
2023/03/07 01:31:35;;;;;;;11.23;7.97;;;;;;;;;;10418832;27;20048;-61
2023/03/07 01:36:35;;;;;;;13.10;8.90;;;;;;;;;;10417842;27;20043;-61
2023/03/07 01:41:35;;;;;;;9.60;7.97;;;;;;;;;;10412446;27;20055;-62
2023/03/07 01:46:42;;;;;;;12.52;8.25;;;;;;;;;;10410574;27;20087;-63
2023/03/07 01:51:42;;;;;;;10.15;8.23;;;;;;;;;;10409609;27;20051;-60
2023/03/07 01:56:41;;;;;;;11.82;8.75;;;;;;;;;;10413521;28;20043;-61
2023/03/07 02:01:41;;;;;;;10.60;9.02;;;;;;;;;;10411277;27;20079;-62
2023/03/07 02:06:39;;;;;;;10.77;8.95;;;;;;;;;;10410025;28;20079;-61
2023/03/07 02:11:39;;;;;;;14.52;8.88;;;;;;;;;;10408295;28;20166;-61
2023/03/07 02:16:38;;;;;;;11.18;8.98;;;;;;;;;;10417764;27;20109;-61
2023/03/07 02:21:43;;;;;;;9.30;8.30;;;;;;;;;;10427234;27;20607;-61
2023/03/07 02:26:44;;;;;;;11.32;9.10;;;;;;;;;;10421062;27;20488;-61
2023/03/07 02:31:42;;;;;;;11.10;9.88;;;;;;;;;;10426257;27;20081;-61
2023/03/07 02:36:41;;;;;;;12.32;10.00;;;;;;;;;;10428855;27;20075;-61
2023/03/07 02:41:52;;;;;;;16.38;12.75;;;;;;;;;;10419741;27;20086;-62
2023/03/07 02:46:57;;;;;;;14.75;10.88;;;;;;;;;;10418681;27;20083;-61
2023/03/07 02:51:59;;;;;;;15.82;9.23;;;;;;;;;;10418705;27;20083;-61
2023/03/07 02:57:00;;;;;;;11.85;10.02;;;;;;;;;;10416202;27;20058;-61
2023/03/07 03:01:58;;;;;;;13.25;9.63;;;;;;;;;;10417961;27;20055;-61
2023/03/07 03:06:57;;;;;;;12.80;10.43;;;;;;;;;;10418401;27;20071;-61
2023/03/07 03:11:55;;;;;;;11.98;9.85;;;;;;;;;;10419410;27;20039;-61
2023/03/07 03:16:57;;;;;;;10.15;9.10;;;;;;;;;;10416411;27;20104;-62
2023/03/07 03:21:56;;;;;;;11.68;10.43;;;;;;;;;;10419605;27;20125;-61
2023/03/07 03:26:56;;;;;;;11.82;10.15;;;;;;;;;;10417888;27;20496;-61
2023/03/07 03:31:58;;;;;;;11.45;9.70;;;;;;;;;;10417848;27;20058;-61
2023/03/07 03:36:56;;;;;;;12.98;10.43;;;;;;;;;;10415284;27;20063;-62
2023/03/07 03:41:55;;;;;;;13.00;10.57;;;;;;;;;;10413972;27;20066;-61
2023/03/07 03:46:54;;;;;;;11.70;10.13;;;;;;;;;;10416468;27;20086;-60
2023/03/07 03:51:55;;;;;;;11.68;9.73;;;;;;;;;;10425472;27;20075;-60
2023/03/07 03:56:54;;;;;;;12.63;10.35;;;;;;;;;;10415825;27;20074;-60
2023/03/07 04:01:53;;;;;;;13.75;10.32;;;;;;;;;;10418580;27;20051;-60
2023/03/07 04:06:52;;;;;;;15.50;10.50;;;;;;;;;;10416219;27;20071;-61
2023/03/07 04:11:52;;;;;;;11.70;9.77;;;;;;;;;;10415731;27;20051;-61
2023/03/07 04:16:50;;;;;;;14.60;11.40;;;;;;;;;;10416612;27;20044;-60
2023/03/07 04:21:48;;;;;;;14.32;11.23;;;;;;;;;;10414397;27;20067;-60
2023/03/07 04:26:47;;;;;;;11.75;10.00;;;;;;;;;;10409382;27;20075;-61
2023/03/07 04:31:47;;;;;;;12.77;10.35;;;;;;;;;;10410974;27;20070;-61
2023/03/07 04:36:46;;;;;;;14.85;11.23;;;;;;;;;;10414330;27;20070;-61
2023/03/07 04:41:44;;;;;;;16.20;12.93;;;;;;;;;;10412655;27;20047;-61
2023/03/07 04:46:51;;;;;;;16.95;11.00;;;;;;;;;;10414336;27;20082;-61
2023/03/07 04:51:50;;;;;;;14.27;11.80;;;;;;;;;;10409628;27;20075;-61
2023/03/07 04:56:50;;;;;;;23.08;13.07;;;;;;;;;;10414186;27;20531;-62
2023/03/07 05:01:48;;;;;;;18.95;13.50;;;;;;;;;;10411930;27;20448;-62
2023/03/07 05:06:48;;;;;;;26.95;19.65;;;;;;;;;;10414187;27;20460;-63
2023/03/07 05:11:46;;;;;;;13.13;9.77;;;;;;;;;;10411847;27;20039;-62
2023/03/07 05:16:44;;;;;;;12.25;10.00;;;;;;;;;;10407957;27;20058;-62
2023/03/07 05:21:43;;;;;;;11.00;8.65;;;;;;;;;;10412610;27;20075;-62
2023/03/07 05:26:44;;;;;;;16.48;13.07;;;;;;;;;;10412712;27;20424;-62
2023/03/07 05:31:42;;;;;;;26.83;16.77;;;;;;;;;;10413792;27;20081;-62
2023/03/07 05:36:40;;;;;;;15.77;13.05;;;;;;;;;;10416897;27;20082;-63
2023/03/07 05:41:39;;;;;;;14.65;10.40;;;;;;;;;;10411009;27;20079;-62
2023/03/07 05:46:39;;;;;;;11.98;10.00;;;;;;;;;;10423021;27;20103;-62
2023/03/07 05:51:37;;;;;;;13.02;9.32;;;;;;;;;;10405339;27;20066;-63
2023/03/07 05:56:36;;;;;;;10.57;9.38;;;;;;;;;;10404565;27;20497;-63
2023/03/07 06:01:35;;;;;;;11.25;9.00;;;;;;;;;;10407149;28;20105;-61
2023/03/07 06:06:35;;;;;;;12.43;9.30;;;;;;;;;;10406752;28;20085;-63
2023/03/07 06:11:33;;;;;;;12.48;9.80;;;;;;;;;;10410558;28;20102;-62
2023/03/07 06:16:31;;;;;;;12.15;10.15;;;;;;;;;;10408130;27;20039;-62
2023/03/07 06:21:32;;;;;;;15.40;13.60;;;;;;;;;;10409027;27;20071;-62
2023/03/07 06:26:32;;;;;;;17.27;12.23;;;;;;;;;;10416995;27;20481;-63
2023/03/07 06:31:31;;;;;;;11.30;9.57;;;;;;;;;;10401720;28;20097;-62
2023/03/07 06:36:30;;;;;;;13.68;10.82;;;;;;;;;;10404015;28;20479;-62
2023/03/07 06:41:32;;;;;;;12.10;10.35;;;;;;;;;;10410104;28;20095;-62
2023/03/07 06:46:32;;;;;;;14.15;10.57;;;;;;;;;;10407479;28;20070;-62
2023/03/07 06:51:36;;;;;;;12.57;11.13;;;;;;;;;;10409753;28;20078;-61
2023/03/07 06:56:37;;;;;;;12.73;10.40;;;;;;;;;;10404984;28;20074;-62
2023/03/07 07:01:35;;;;;;;11.60;9.90;;;;;;;;;;10408079;28;20071;-63
2023/03/07 07:06:33;;;;;;;12.57;10.20;;;;;;;;;;10413194;27;20075;-63
2023/03/07 07:11:33;;;;;;;13.27;10.15;;;;;;;;;;10415681;27;20078;-63
2023/03/07 07:16:35;;;;;;;12.27;9.75;;;;;;;;;;10416681;27;20055;-62
2023/03/07 07:21:34;;;;;;;15.07;11.50;;;;;;;;;;10417967;27;20156;-62
2023/03/07 07:26:33;;;;;;;12.75;10.60;;;;;;;;;;10418370;27;20059;-62
2023/03/07 07:31:32;;;;;;;17.80;12.40;;;;;;;;;;10415560;27;20075;-62
2023/03/07 07:36:33;;;;;;;16.58;12.38;;;;;;;;;;10420799;27;20047;-62
2023/03/07 07:41:32;;;;;;;22.55;16.52;;;;;;;;;;10418093;27;20078;-63
2023/03/07 07:46:30;;;;;;;26.27;19.77;;;;;;;;;;10417406;27;20043;-62
2023/03/07 07:51:29;;;;;;;18.88;14.93;;;;;;;;;;10415323;27;20074;-61
2023/03/07 07:56:28;;;;;;;32.13;20.65;;;;;;;;;;10413066;27;20062;-62
2023/03/07 08:01:26;;;;;;;19.90;14.00;;;;;;;;;;10412055;27;20505;-62
2023/03/07 08:06:25;;;;;;;17.02;11.73;;;;;;;;;;10416567;27;20066;-62
2023/03/07 08:11:24;;;;;;;13.95;10.27;;;;;;;;;;10416767;27;20456;-62
2023/03/07 08:16:23;;;;;;;13.13;11.05;;;;;;;;;;10417766;27;20450;-62
2023/03/07 08:21:22;;;;;;;9.25;7.93;;;;;;;;;;10413295;27;20476;-62
2023/03/07 08:26:20;;;;;;;27.48;11.88;;;;;;;;;;10413701;27;20086;-62
2023/03/07 08:31:22;;;;;;;16.05;11.35;;;;;;;;;;10415672;27;20079;-62
2023/03/07 08:36:22;;;;;;;16.13;12.48;;;;;;;;;;10415970;27;20062;-62
2023/03/07 08:41:20;;;;;;;13.52;9.68;;;;;;;;;;10416837;27;20066;-62
2023/03/07 08:46:18;;;;;;;17.65;13.80;;;;;;;;;;10415756;27;20678;-62
2023/03/07 08:51:17;;;;;;;10.88;9.02;;;;;;;;;;10415825;27;20523;-62
2023/03/07 08:56:18;;;;;;;9.60;7.95;;;;;;;;;;10416550;27;20051;-62
2023/03/07 09:01:16;;;;;;;10.68;7.57;;;;;;;;;;10411162;27;20079;-62
2023/03/07 09:06:17;;;;;;;9.80;7.18;;;;;;;;;;10414234;27;20083;-62
2023/03/07 09:11:17;;;;;;;10.13;7.90;;;;;;;;;;10415982;27;20487;-62
2023/03/07 09:16:16;;;;;;;8.98;7.32;;;;;;;;;;10415055;27;20082;-62
2023/03/07 09:21:14;;;;;;;11.63;8.57;;;;;;;;;;10415285;27;20071;-62
2023/03/07 09:26:12;;;;;;;13.13;8.85;;;;;;;;;;10414728;27;20512;-62
2023/03/07 09:31:13;;;;;;;12.77;10.57;;;;;;;;;;10415928;27;20092;-63
2023/03/07 09:36:12;;;;;;;12.45;8.07;;;;;;;;;;10414127;27;20083;-62
2023/03/07 09:41:21;;;;;;;7.38;5.90;;;;;;;;;;10413779;27;20082;-62
2023/03/07 09:46:29;;;;;;;7.68;5.72;;;;;;;;;;10414684;27;20075;-63
2023/03/07 09:51:35;;;;;;;7.85;5.95;;;;;;;;;;10409096;27;20075;-62
2023/03/07 09:56:37;;;;;;;8.35;5.57;;;;;;;;;;10409192;28;20067;-62
2023/03/07 10:01:37;;;;;;;8.57;6.10;;;;;;;;;;10414584;28;20071;-62
2023/03/07 10:06:38;;;;;;;16.52;6.85;;;;;;;;;;10412958;28;20060;-62
2023/03/07 10:11:54;;;;;;;20.67;15.38;;;;;;;;;;10414876;28;20075;-63
2023/03/07 10:16:59;;;;;;;5.47;4.85;;;;;;;;;;10413242;28;20045;-62
2023/03/07 10:22:03;;;;;;;16.02;9.02;;;;;;;;;;10414190;28;20067;-63
2023/03/07 10:27:04;;;;;;;20.02;8.75;;;;;;;;;;10415108;28;20067;-62
2023/03/07 10:32:08;;;;;;;7.70;4.53;;;;;;;;;;10413905;28;20508;-63
2023/03/07 10:37:12;;;;;;;14.85;8.40;;;;;;;;;;10413814;27;20497;-62
2023/03/07 10:42:11;;;;;;;9.65;5.28;;;;;;;;;;10421213;27;20496;-62
2023/03/07 10:47:12;;;;;;;6.20;5.00;;;;;;;;;;10419297;27;20078;-62
2023/03/07 10:52:17;;;;;;;8.43;5.45;;;;;;;;;;10421582;27;20149;-63
2023/03/07 10:57:16;;;;;;;8.93;7.82;;;;;;;;;;10421680;27;20078;-63
2023/03/07 11:02:34;;;;;;;5.85;4.90;;;;;;;;;;10418463;27;20083;-63
2023/03/07 11:07:33;;;;;;;8.00;6.80;;;;;;;;;;10422195;27;20074;-63
2023/03/07 11:12:31;;;;;;;6.50;4.90;;;;;;;;;;10419288;27;20571;-62
2023/03/07 11:17:43;;;;;;;7.00;5.47;;;;;;;;;;10418620;27;20067;-63
2023/03/07 11:22:41;;;;;;;6.05;4.15;;;;;;;;;;10415171;27;20036;-63
2023/03/07 11:27:46;;;;;;;7.38;4.90;;;;;;;;;;10417865;27;20078;-63
2023/03/07 11:32:50;;;;;;;4.63;3.50;;;;;;;;;;10415305;27;20085;-63
2023/03/07 11:37:54;;;;;;;6.93;4.77;;;;;;;;;;10416449;27;20067;-63
2023/03/07 11:42:59;;;;;;;4.93;3.92;;;;;;;;;;10413082;27;20071;-63
2023/03/07 11:48:04;;;;;;;5.30;4.70;;;;;;;;;;10411935;27;20078;-63
2023/03/07 11:53:08;;;;;;;14.93;10.07;;;;;;;;;;10412450;27;20067;-63
2023/03/07 11:58:25;;;;;;;5.50;4.97;;;;;;;;;;10416911;27;20071;-62
2023/03/07 12:03:32;;;;;;;5.07;4.30;;;;;;;;;;10415056;27;20043;-63
2023/03/07 12:08:35;;;;;;;4.68;4.03;;;;;;;;;;10415104;27;20520;-63
2023/03/07 12:13:39;;;;;;;5.60;4.13;;;;;;;;;;10415910;27;20071;-63
2023/03/07 12:18:49;;;;;;;4.20;3.80;;;;;;;;;;10417100;27;20044;-62
2023/03/07 12:23:48;;;;;;;5.32;4.22;;;;;;;;;;10415963;27;20074;-62
2023/03/07 12:28:49;;;;;;;6.18;3.40;;;;;;;;;;10417113;27;20063;-62
2023/03/07 12:33:52;;;;;;;4.50;4.03;;;;;;;;;;10415368;27;20067;-63
2023/03/07 12:38:52;;;;;;;13.57;8.38;;;;;;;;;;10416571;27;20118;-63
2023/03/07 12:43:53;;;;;;;6.93;3.83;;;;;;;;;;10414612;27;20070;-63
2023/03/07 12:48:54;;;;;;;4.78;3.70;;;;;;;;;;10416939;27;20070;-62
2023/03/07 12:53:55;;;;;;;6.28;5.47;;;;;;;;;;10415014;27;20066;-62
2023/03/07 12:58:57;;;;;;;3.53;3.03;;;;;;;;;;10414577;27;20083;-61
2023/03/07 13:04:02;;;;;;;9.02;5.13;;;;;;;;;;10416247;27;20060;-63
2023/03/07 13:09:02;;;;;;;3.58;3.25;;;;;;;;;;10417456;27;20082;-62
2023/03/07 13:14:01;;;;;;;6.78;4.00;;;;;;;;;;10416328;27;20441;-63
2023/03/07 13:19:15;;;;;;;7.10;4.95;;;;;;;;;;10413849;27;20134;-63
2023/03/07 13:24:34;;;;;;;10.25;5.15;;;;;;;;;;10409300;27;20493;-62
2023/03/07 13:29:51;;;;;;;5.18;3.47;;;;;;;;;;10411052;27;20074;-63
2023/03/07 13:34:50;;;;;;;7.00;3.30;;;;;;;;;;10412789;27;20074;-63
2023/03/07 13:40:01;;;;;;;5.63;3.47;;;;;;;;;;10414496;27;20075;-63
2023/03/07 13:44:59;;;;;;;5.47;4.47;;;;;;;;;;10410605;27;20051;-62
2023/03/07 13:49:58;;;;;;;7.03;4.38;;;;;;;;;;10414482;27;20500;-63
2023/03/07 13:54:56;;;;;;;8.60;5.03;;;;;;;;;;10412852;27;20059;-62
2023/03/07 13:59:56;;;;;;;8.73;5.45;;;;;;;;;;10409348;27;20110;-62
2023/03/07 14:04:57;;;;;;;18.23;9.48;;;;;;;;;;10414092;28;20078;-62
2023/03/07 14:09:56;;;;;;;9.48;6.47;;;;;;;;;;10411872;28;20083;-61
2023/03/07 14:15:06;;;;;;;9.93;3.95;;;;;;;;;;10420793;27;20059;-62
2023/03/07 14:20:10;;;;;;;7.78;4.75;;;;;;;;;;10421252;27;20098;-63
2023/03/07 14:25:14;;;;;;;8.57;5.90;;;;;;;;;;10420621;27;20078;-63
2023/03/07 14:30:15;;;;;;;5.30;4.00;;;;;;;;;;10422804;27;20554;-63
2023/03/07 14:35:15;;;;;;;6.05;5.20;;;;;;;;;;10416432;27;20086;-62
2023/03/07 14:40:27;;;;;;;10.23;6.07;;;;;;;;;;10416829;27;20069;-63
2023/03/07 14:45:31;;;;;;;8.60;6.75;;;;;;;;;;10417283;27;20062;-64
2023/03/07 14:50:31;;;;;;;7.63;4.80;;;;;;;;;;10420008;27;20071;-62
2023/03/07 14:55:33;;;;;;;11.23;7.60;;;;;;;;;;10421127;27;20043;-63
2023/03/07 15:00:33;;;;;;;11.20;7.75;;;;;;;;;;10420936;27;20086;-63
2023/03/07 15:05:34;;;;;;;7.28;4.85;;;;;;;;;;10420324;27;20079;-63
2023/03/07 15:10:34;;;;;;;14.60;7.57;;;;;;;;;;10419032;27;20059;-63
2023/03/07 15:15:34;;;;;;;10.63;6.07;;;;;;;;;;10414183;27;20066;-63
2023/03/07 15:20:34;;;;;;;13.40;6.07;;;;;;;;;;10412677;27;20079;-63
2023/03/07 15:25:32;;;;;;;15.02;7.20;;;;;;;;;;10416885;27;20093;-63
2023/03/07 15:30:32;;;;;;;20.50;11.05;;;;;;;;;;10416715;27;20063;-64
2023/03/07 15:35:31;;;;;;;21.83;11.15;;;;;;;;;;10418489;27;20051;-63
2023/03/07 15:40:31;;;;;;;22.08;15.93;;;;;;;;;;10416689;27;20070;-63
2023/03/07 15:45:30;;;;;;;28.00;18.48;;;;;;;;;;10418588;27;20070;-63
2023/03/07 15:50:29;;;;;;;23.63;17.90;;;;;;;;;;10415201;27;20044;-63
2023/03/07 15:55:27;;;;;;;23.20;17.38;;;;;;;;;;10416134;27;20067;-63
2023/03/07 16:00:29;;;;;;;16.75;12.57;;;;;;;;;;10417118;27;20083;-63
2023/03/07 16:05:34;;;;;;;15.75;11.75;;;;;;;;;;10422405;27;20074;-63
2023/03/07 16:10:33;;;;;;;44.33;32.50;;;;;;;;;;10418050;27;20067;-63
2023/03/07 16:15:32;;;;;;;60.25;43.28;;;;;;;;;;10417999;27;20514;-63
2023/03/07 16:20:30;;;;;;;65.20;48.58;;;;;;;;;;10416752;27;20074;-62
2023/03/07 16:25:30;;;;;;;57.55;38.15;;;;;;;;;;10416577;27;20075;-62
2023/03/07 16:30:29;;;;;;;55.92;40.97;;;;;;;;;;10422827;27;20040;-62
2023/03/07 16:35:29;;;;;;;48.20;34.28;;;;;;;;;;10412764;27;20066;-63
2023/03/07 16:40:28;;;;;;;31.17;22.17;;;;;;;;;;10415653;27;21029;-63
2023/03/07 16:45:26;;;;;;;30.33;23.95;;;;;;;;;;10411091;27;20067;-63
2023/03/07 16:50:26;;;;;;;42.08;33.45;;;;;;;;;;10415599;27;20043;-62
2023/03/07 16:55:25;;;;;;;31.00;26.67;;;;;;;;;;10410763;27;20082;-62
2023/03/07 17:00:25;;;;;;;30.25;25.33;;;;;;;;;;10410524;27;20082;-62
2023/03/07 17:05:24;;;;;;;52.45;34.50;;;;;;;;;;10410563;27;20149;-62
2023/03/07 17:10:23;;;;;;;139.15;92.28;;;;;;;;;;10414257;27;20075;-62
2023/03/07 17:15:25;;;;;;;80.57;49.90;;;;;;;;;;10414079;27;20373;-62
2023/03/07 17:20:23;;;;;;;44.92;25.33;;;;;;;;;;10413784;27;20089;-63
2023/03/07 17:25:21;;;;;;;96.40;63.78;;;;;;;;;;10415368;27;20074;-63
2023/03/07 17:30:21;;;;;;;74.93;48.58;;;;;;;;;;10414219;27;20075;-63
2023/03/07 17:35:21;;;;;;;72.07;48.75;;;;;;;;;;10412747;27;20085;-62
2023/03/07 17:40:19;;;;;;;54.15;38.40;;;;;;;;;;10413688;27;20488;-61
2023/03/07 17:45:18;;;;;;;44.17;33.30;;;;;;;;;;10412775;27;20070;-62
2023/03/07 17:50:18;;;;;;;52.17;30.70;;;;;;;;;;10412127;27;20071;-62
2023/03/07 17:55:18;;;;;;;40.20;28.58;;;;;;;;;;10410912;27;20528;-61
2023/03/07 18:00:17;;;;;;;57.90;41.20;;;;;;;;;;10411283;27;20074;-63
2023/03/07 18:05:18;;;;;;;32.92;21.35;;;;;;;;;;10404149;28;20066;-62
2023/03/07 18:10:18;;;;;;;30.80;22.08;;;;;;;;;;10396295;28;20067;-62
2023/03/07 18:15:18;;;;;;;50.17;33.75;;;;;;;;;;10405810;28;20063;-61
2023/03/07 18:20:17;;;;;;;48.72;29.17;;;;;;;;;;10398351;27;20082;-62
2023/03/07 18:25:15;;;;;;;41.70;26.45;;;;;;;;;;10393912;28;20070;-62
2023/03/07 18:30:15;;;;;;;29.73;20.77;;;;;;;;;;10403367;28;20071;-62
2023/03/07 18:35:15;;;;;;;25.92;18.67;;;;;;;;;;10407774;27;20083;-62
2023/03/07 18:40:13;;;;;;;25.88;19.88;;;;;;;;;;10410176;28;20456;-61
2023/03/07 18:45:12;;;;;;;20.55;16.10;;;;;;;;;;10408408;28;20075;-61
2023/03/07 18:50:12;;;;;;;13.80;11.52;;;;;;;;;;10408820;28;20482;-61
2023/03/07 18:55:10;;;;;;;16.65;11.30;;;;;;;;;;10402216;28;20305;-61
2023/03/07 19:00:10;;;;;;;15.10;10.27;;;;;;;;;;10409663;27;20464;-62
2023/03/07 19:05:09;;;;;;;14.27;11.15;;;;;;;;;;10416636;27;20501;-61
2023/03/07 19:10:09;;;;;;;20.65;15.70;;;;;;;;;;10408167;27;20071;-61
2023/03/07 19:15:08;;;;;;;22.42;15.20;;;;;;;;;;10415483;27;20082;-61
2023/03/07 19:20:07;;;;;;;19.27;13.63;;;;;;;;;;10414075;27;20079;-61
2023/03/07 19:25:06;;;;;;;14.98;11.38;;;;;;;;;;10421176;27;20508;-61
2023/03/07 19:30:06;;;;;;;19.33;10.15;;;;;;;;;;10406799;27;20075;-60
2023/03/07 19:35:05;;;;;;;13.23;11.25;;;;;;;;;;10414009;27;20079;-60
2023/03/07 19:40:03;;;;;;;24.13;19.95;;;;;;;;;;10418353;27;20071;-61
2023/03/07 19:45:02;;;;;;;26.95;21.35;;;;;;;;;;10412929;27;20496;-62
2023/03/07 19:50:01;;;;;;;31.00;21.88;;;;;;;;;;10415109;27;20621;-62
2023/03/07 19:55:00;;;;;;;19.17;13.00;;;;;;;;;;10413712;27;20078;-62
2023/03/07 19:59:58;;;;;;;10.30;6.97;;;;;;;;;;10412726;27;20078;-62
2023/03/07 20:04:56;;;;;;;15.23;10.52;;;;;;;;;;10414876;27;20067;-61
2023/03/07 20:09:56;;;;;;;14.30;10.95;;;;;;;;;;10412394;27;20478;-62
2023/03/07 20:14:54;;;;;;;10.93;8.40;;;;;;;;;;10414570;27;20089;-61
2023/03/07 20:19:54;;;;;;;12.70;10.70;;;;;;;;;;10414536;27;20063;-62
2023/03/07 20:24:52;;;;;;;13.32;9.00;;;;;;;;;;10416796;27;20063;-62
2023/03/07 20:29:51;;;;;;;15.40;13.02;;;;;;;;;;10414409;27;20063;-62
2023/03/07 20:34:50;;;;;;;9.15;6.78;;;;;;;;;;10413472;27;20067;-61
2023/03/07 20:39:49;;;;;;;11.38;7.63;;;;;;;;;;10409823;27;20067;-60
2023/03/07 20:44:47;;;;;;;15.10;8.45;;;;;;;;;;10413361;27;20067;-61
2023/03/07 20:49:47;;;;;;;21.15;14.70;;;;;;;;;;10414882;27;20067;-62
2023/03/07 20:54:45;;;;;;;28.05;19.13;;;;;;;;;;10411175;27;20082;-62
2023/03/07 20:59:43;;;;;;;35.97;27.48;;;;;;;;;;10411612;27;20067;-62
2023/03/07 21:04:41;;;;;;;30.33;22.13;;;;;;;;;;10403238;27;20078;-61
2023/03/07 21:09:41;;;;;;;19.92;13.65;;;;;;;;;;10412275;27;20074;-63
2023/03/07 21:14:39;;;;;;;13.18;9.80;;;;;;;;;;10405538;27;20071;-61
2023/03/07 21:19:37;;;;;;;11.02;8.07;;;;;;;;;;10412621;27;20067;-62
2023/03/07 21:24:35;;;;;;;7.82;7.05;;;;;;;;;;10414456;27;20081;-63
2023/03/07 21:29:35;;;;;;;7.80;6.47;;;;;;;;;;10413946;27;20363;-62
2023/03/07 21:34:33;;;;;;;7.65;6.32;;;;;;;;;;10413114;27;20078;-62
2023/03/07 21:39:31;;;;;;;6.05;5.35;;;;;;;;;;10413328;27;20135;-62
2023/03/07 21:44:30;;;;;;;11.48;8.43;;;;;;;;;;10413336;27;20066;-61
2023/03/07 21:49:30;;;;;;;11.18;8.52;;;;;;;;;;10415623;27;20067;-62
2023/03/07 21:54:28;;;;;;;6.95;5.03;;;;;;;;;;10413735;27;20078;-62
2023/03/07 21:59:27;;;;;;;7.90;5.10;;;;;;;;;;10411681;27;20075;-60
2023/03/07 22:04:25;;;;;;;5.57;4.53;;;;;;;;;;10414415;27;20063;-61
2023/03/07 22:09:24;;;;;;;5.07;4.20;;;;;;;;;;10414416;28;20047;-61
2023/03/07 22:14:22;;;;;;;5.90;4.50;;;;;;;;;;10412506;28;20071;-61
2023/03/07 22:19:21;;;;;;;6.18;4.70;;;;;;;;;;10411945;28;20070;-62
2023/03/07 22:24:19;;;;;;;7.00;4.75;;;;;;;;;;10412492;27;20102;-62
2023/03/07 22:29:18;;;;;;;7.90;4.28;;;;;;;;;;10409336;28;20068;-62
2023/03/07 22:34:16;;;;;;;7.88;4.13;;;;;;;;;;10414401;27;20074;-61
2023/03/07 22:39:14;;;;;;;7.32;5.18;;;;;;;;;;10421671;27;20082;-61
2023/03/07 22:44:14;;;;;;;5.00;4.07;;;;;;;;;;10418708;27;20066;-61
2023/03/07 22:49:13;;;;;;;9.15;4.93;;;;;;;;;;10420419;27;20067;-61
2023/03/07 22:54:11;;;;;;;6.57;4.97;;;;;;;;;;10421649;27;20078;-61
2023/03/07 22:59:10;;;;;;;5.60;4.93;;;;;;;;;;10419739;27;20090;-61
2023/03/07 23:04:08;;;;;;;8.98;6.25;;;;;;;;;;10419258;27;20042;-61
2023/03/07 23:09:08;;;;;;;6.60;5.97;;;;;;;;;;10419736;27;20070;-61
2023/03/07 23:14:06;;;;;;;7.20;5.95;;;;;;;;;;10421256;27;20110;-62
2023/03/07 23:19:05;;;;;;;9.65;6.10;;;;;;;;;;10420673;27;21254;-62
2023/03/07 23:24:03;;;;;;;13.15;6.25;;;;;;;;;;10419363;27;20079;-61
2023/03/07 23:29:03;;;;;;;6.95;4.80;;;;;;;;;;10418079;27;20075;-61
2023/03/07 23:34:02;;;;;;;4.93;4.43;;;;;;;;;;10418745;27;20079;-61
2023/03/07 23:39:00;;;;;;;8.20;6.18;;;;;;;;;;10414779;27;20067;-62
2023/03/07 23:43:59;;;;;;;13.95;8.82;;;;;;;;;;10416810;27;20375;-61
2023/03/07 23:48:58;;;;;;;6.90;5.97;;;;;;;;;;10417367;27;20078;-62
2023/03/07 23:53:57;;;;;;;8.32;6.60;;;;;;;;;;10417372;27;20066;-59
2023/03/07 23:58:55;;;;;;;7.35;5.13;;;;;;;;;;10417657;27;20067;-62
